sensor_id;sensor_type;location;lat;lon;timestamp;temperature;humidity
67868;SHT31;54672;46.096;14.470;2022-09-09T00:01:38;17.74;99.70
67868;SHT31;54672;46.096;14.470;2022-09-09T00:09:27;17.63;99.99
67868;SHT31;54672;46.096;14.470;2022-09-09T00:12:15;17.57;99.99
67868;SHT31;54672;46.096;14.470;2022-09-09T00:26:32;17.47;99.99
67868;SHT31;54672;46.096;14.470;2022-09-09T00:29:14;17.44;99.99
67868;SHT31;54672;46.096;14.470;2022-09-09T00:31:42;17.45;99.99
67868;SHT31;54672;46.096;14.470;2022-09-09T00:34:21;17.44;99.99
67868;SHT31;54672;46.096;14.470;2022-09-09T00:36:49;17.44;99.99
67868;SHT31;54672;46.096;14.470;2022-09-09T00:39:32;17.37;99.99
67868;SHT31;54672;46.096;14.470;2022-09-09T00:42:18;17.40;99.99
67868;SHT31;54672;46.096;14.470;2022-09-09T00:55:45;17.28;99.99
67868;SHT31;54672;46.096;14.470;2022-09-09T00:58:13;17.27;99.99
67868;SHT31;54672;46.096;14.470;2022-09-09T01:00:47;17.27;99.99
67868;SHT31;54672;46.096;14.470;2022-09-09T01:17:01;17.47;99.99
67868;SHT31;54672;46.096;14.470;2022-09-09T01:19:49;17.41;99.99
67868;SHT31;54672;46.096;14.470;2022-09-09T01:27:48;17.40;99.99
67868;SHT31;54672;46.096;14.470;2022-09-09T01:30:16;17.40;99.99
67868;SHT31;54672;46.096;14.470;2022-09-09T01:32:50;17.43;99.99
67868;SHT31;54672;46.096;14.470;2022-09-09T01:35:36;17.44;99.99
67868;SHT31;54672;46.096;14.470;2022-09-09T01:38:03;17.45;99.99
67868;SHT31;54672;46.096;14.470;2022-09-09T01:40:28;17.45;99.99
67868;SHT31;54672;46.096;14.470;2022-09-09T01:42:54;17.44;99.99
67868;SHT31;54672;46.096;14.470;2022-09-09T01:45:20;17.45;99.99
67868;SHT31;54672;46.096;14.470;2022-09-09T01:47:46;17.40;99.99
67868;SHT31;54672;46.096;14.470;2022-09-09T01:50:14;17.38;99.99
67868;SHT31;54672;46.096;14.470;2022-09-09T01:52:40;17.41;99.99
67868;SHT31;54672;46.096;14.470;2022-09-09T01:55:07;17.38;99.99
67868;SHT31;54672;46.096;14.470;2022-09-09T02:00:14;17.45;99.99
67868;SHT31;54672;46.096;14.470;2022-09-09T02:05:34;17.43;99.99
67868;SHT31;54672;46.096;14.470;2022-09-09T02:08:06;17.47;99.99
67868;SHT31;54672;46.096;14.470;2022-09-09T02:10:53;17.51;99.99
67868;SHT31;54672;46.096;14.470;2022-09-09T02:13:21;17.50;99.83
67868;SHT31;54672;46.096;14.470;2022-09-09T02:18:24;17.51;99.99
67868;SHT31;54672;46.096;14.470;2022-09-09T02:20:52;17.54;99.98
67868;SHT31;54672;46.096;14.470;2022-09-09T02:23:19;17.51;99.90
67868;SHT31;54672;46.096;14.470;2022-09-09T02:25:45;17.50;99.94
67868;SHT31;54672;46.096;14.470;2022-09-09T02:28:12;17.50;99.86
67868;SHT31;54672;46.096;14.470;2022-09-09T02:30:40;17.47;99.92
67868;SHT31;54672;46.096;14.470;2022-09-09T02:33:07;17.45;99.85
67868;SHT31;54672;46.096;14.470;2022-09-09T02:35:35;17.44;99.76
67868;SHT31;54672;46.096;14.470;2022-09-09T02:38:08;17.44;99.85
67868;SHT31;54672;46.096;14.470;2022-09-09T02:40:35;17.44;99.83
67868;SHT31;54672;46.096;14.470;2022-09-09T02:43:01;17.45;99.82
67868;SHT31;54672;46.096;14.470;2022-09-09T02:45:34;17.45;99.86
67868;SHT31;54672;46.096;14.470;2022-09-09T02:50:49;17.44;99.74
67868;SHT31;54672;46.096;14.470;2022-09-09T02:53:24;17.41;99.89
67868;SHT31;54672;46.096;14.470;2022-09-09T02:56:04;17.40;99.99
67868;SHT31;54672;46.096;14.470;2022-09-09T02:58:31;17.37;99.99
67868;SHT31;54672;46.096;14.470;2022-09-09T03:00:57;17.33;99.99
67868;SHT31;54672;46.096;14.470;2022-09-09T03:03:23;17.34;99.99
67868;SHT31;54672;46.096;14.470;2022-09-09T03:05:49;17.37;99.99
67868;SHT31;54672;46.096;14.470;2022-09-09T03:08:15;17.34;99.99
67868;SHT31;54672;46.096;14.470;2022-09-09T03:10:41;17.31;99.99
67868;SHT31;54672;46.096;14.470;2022-09-09T03:13:06;17.31;99.99
67868;SHT31;54672;46.096;14.470;2022-09-09T03:15:32;17.34;99.99
67868;SHT31;54672;46.096;14.470;2022-09-09T03:17:59;17.38;99.99
67868;SHT31;54672;46.096;14.470;2022-09-09T03:20:25;17.43;99.99
67868;SHT31;54672;46.096;14.470;2022-09-09T03:22:52;17.40;99.99
67868;SHT31;54672;46.096;14.470;2022-09-09T03:25:17;17.35;99.99
67868;SHT31;54672;46.096;14.470;2022-09-09T03:27:43;17.34;99.99
67868;SHT31;54672;46.096;14.470;2022-09-09T03:30:08;17.34;99.99
67868;SHT31;54672;46.096;14.470;2022-09-09T03:32:34;17.37;99.99
67868;SHT31;54672;46.096;14.470;2022-09-09T03:35:00;17.35;99.99
67868;SHT31;54672;46.096;14.470;2022-09-09T03:37:25;17.37;99.99
67868;SHT31;54672;46.096;14.470;2022-09-09T03:39:51;17.40;99.94
67868;SHT31;54672;46.096;14.470;2022-09-09T03:42:16;17.35;99.67
67868;SHT31;54672;46.096;14.470;2022-09-09T03:44:45;17.38;99.79
67868;SHT31;54672;46.096;14.470;2022-09-09T03:47:18;17.31;99.74
67868;SHT31;54672;46.096;14.470;2022-09-09T03:49:45;17.28;99.91
67868;SHT31;54672;46.096;14.470;2022-09-09T03:52:11;17.22;99.99
67868;SHT31;54672;46.096;14.470;2022-09-09T03:54:37;17.19;99.99
67868;SHT31;54672;46.096;14.470;2022-09-09T03:57:03;17.16;99.99
67868;SHT31;54672;46.096;14.470;2022-09-09T03:59:29;17.20;99.99
67868;SHT31;54672;46.096;14.470;2022-09-09T04:01:55;17.24;99.99
67868;SHT31;54672;46.096;14.470;2022-09-09T04:04:22;17.26;99.99
67868;SHT31;54672;46.096;14.470;2022-09-09T04:06:48;17.23;99.99
67868;SHT31;54672;46.096;14.470;2022-09-09T04:09:14;17.22;99.99
67868;SHT31;54672;46.096;14.470;2022-09-09T04:11:39;17.19;99.99
67868;SHT31;54672;46.096;14.470;2022-09-09T04:14:04;17.22;99.99
67868;SHT31;54672;46.096;14.470;2022-09-09T04:16:32;17.27;99.99
67868;SHT31;54672;46.096;14.470;2022-09-09T04:18:58;17.31;99.99
67868;SHT31;54672;46.096;14.470;2022-09-09T04:21:24;17.33;99.80
67868;SHT31;54672;46.096;14.470;2022-09-09T04:23:50;17.38;99.63
67868;SHT31;54672;46.096;14.470;2022-09-09T04:26:16;17.37;99.63
67868;SHT31;54672;46.096;14.470;2022-09-09T04:28:42;17.35;99.49
67868;SHT31;54672;46.096;14.470;2022-09-09T04:31:11;17.35;99.79
67868;SHT31;54672;46.096;14.470;2022-09-09T04:33:40;17.34;99.56
67868;SHT31;54672;46.096;14.470;2022-09-09T04:36:05;17.30;99.26
67868;SHT31;54672;46.096;14.470;2022-09-09T04:38:31;17.35;99.15
67868;SHT31;54672;46.096;14.470;2022-09-09T04:40:56;17.33;99.05
67868;SHT31;54672;46.096;14.470;2022-09-09T04:43:22;17.31;98.62
67868;SHT31;54672;46.096;14.470;2022-09-09T04:45:49;17.33;98.02
67868;SHT31;54672;46.096;14.470;2022-09-09T04:48:15;17.37;98.39
67868;SHT31;54672;46.096;14.470;2022-09-09T04:50:40;17.35;98.24
67868;SHT31;54672;46.096;14.470;2022-09-09T04:53:06;17.34;97.93
67868;SHT31;54672;46.096;14.470;2022-09-09T04:55:32;17.38;97.92
67868;SHT31;54672;46.096;14.470;2022-09-09T04:58:03;17.41;97.62
67868;SHT31;54672;46.096;14.470;2022-09-09T05:00:29;17.43;97.11
67868;SHT31;54672;46.096;14.470;2022-09-09T05:02:54;17.43;97.60
67868;SHT31;54672;46.096;14.470;2022-09-09T05:05:19;17.43;96.85
67868;SHT31;54672;46.096;14.470;2022-09-09T05:07:45;17.43;97.08
67868;SHT31;54672;46.096;14.470;2022-09-09T05:10:12;17.45;97.21
67868;SHT31;54672;46.096;14.470;2022-09-09T05:12:41;17.51;97.54
67868;SHT31;54672;46.096;14.470;2022-09-09T05:15:06;17.43;96.82
67868;SHT31;54672;46.096;14.470;2022-09-09T05:17:32;17.47;96.62
67868;SHT31;54672;46.096;14.470;2022-09-09T05:19:59;17.44;96.56
67868;SHT31;54672;46.096;14.470;2022-09-09T05:22:24;17.41;95.69
67868;SHT31;54672;46.096;14.470;2022-09-09T05:24:50;17.45;95.84
67868;SHT31;54672;46.096;14.470;2022-09-09T05:27:18;17.44;95.95
67868;SHT31;54672;46.096;14.470;2022-09-09T05:29:45;17.43;95.47
67868;SHT31;54672;46.096;14.470;2022-09-09T05:32:10;17.43;95.25
67868;SHT31;54672;46.096;14.470;2022-09-09T05:34:36;17.44;95.49
67868;SHT31;54672;46.096;14.470;2022-09-09T05:37:03;17.44;95.28
67868;SHT31;54672;46.096;14.470;2022-09-09T05:39:29;17.47;95.24
67868;SHT31;54672;46.096;14.470;2022-09-09T05:41:55;17.51;95.07
67868;SHT31;54672;46.096;14.470;2022-09-09T05:44:20;17.57;94.75
67868;SHT31;54672;46.096;14.470;2022-09-09T05:46:46;17.60;94.51
67868;SHT31;54672;46.096;14.470;2022-09-09T05:49:11;17.65;94.12
67868;SHT31;54672;46.096;14.470;2022-09-09T05:51:36;17.67;94.37
67868;SHT31;54672;46.096;14.470;2022-09-09T05:54:02;17.75;94.54
67868;SHT31;54672;46.096;14.470;2022-09-09T05:56:29;17.75;93.35
67868;SHT31;54672;46.096;14.470;2022-09-09T05:58:55;17.77;93.32
67868;SHT31;54672;46.096;14.470;2022-09-09T06:01:25;17.74;93.28
67868;SHT31;54672;46.096;14.470;2022-09-09T06:03:54;17.78;93.50
67868;SHT31;54672;46.096;14.470;2022-09-09T06:06:22;17.84;93.42
67868;SHT31;54672;46.096;14.470;2022-09-09T06:08:51;17.85;93.07
67868;SHT31;54672;46.096;14.470;2022-09-09T06:11:28;17.85;92.98
67868;SHT31;54672;46.096;14.470;2022-09-09T06:13:56;17.82;93.42
67868;SHT31;54672;46.096;14.470;2022-09-09T06:16:24;17.85;93.32
67868;SHT31;54672;46.096;14.470;2022-09-09T06:18:50;17.82;94.23
67868;SHT31;54672;46.096;14.470;2022-09-09T06:23:43;17.84;93.66
67868;SHT31;54672;46.096;14.470;2022-09-09T06:26:15;17.79;93.95
67868;SHT31;54672;46.096;14.470;2022-09-09T06:28:42;17.79;94.21
67868;SHT31;54672;46.096;14.470;2022-09-09T06:31:10;17.84;94.07
67868;SHT31;54672;46.096;14.470;2022-09-09T06:33:37;17.82;94.44
67868;SHT31;54672;46.096;14.470;2022-09-09T06:36:05;17.91;93.97
67868;SHT31;54672;46.096;14.470;2022-09-09T06:38:30;17.95;93.89
67868;SHT31;54672;46.096;14.470;2022-09-09T06:40:58;18.12;93.24
67868;SHT31;54672;46.096;14.470;2022-09-09T06:43:27;18.17;92.55
67868;SHT31;54672;46.096;14.470;2022-09-09T06:46:01;18.02;92.72
67868;SHT31;54672;46.096;14.470;2022-09-09T06:48:27;18.17;92.96
67868;SHT31;54672;46.096;14.470;2022-09-09T06:53:38;18.49;91.44
67868;SHT31;54672;46.096;14.470;2022-09-09T06:58:42;18.80;89.52
67868;SHT31;54672;46.096;14.470;2022-09-09T07:01:13;19.21;86.92
67868;SHT31;54672;46.096;14.470;2022-09-09T07:03:40;19.42;85.86
67868;SHT31;54672;46.096;14.470;2022-09-09T07:06:06;19.83;84.64
67868;SHT31;54672;46.096;14.470;2022-09-09T07:08:32;19.84;84.85
67868;SHT31;54672;46.096;14.470;2022-09-09T07:11:05;19.82;84.79
67868;SHT31;54672;46.096;14.470;2022-09-09T07:13:31;19.58;85.40
67868;SHT31;54672;46.096;14.470;2022-09-09T07:16:17;19.45;85.96
67868;SHT31;54672;46.096;14.470;2022-09-09T07:18:43;19.33;86.05
67868;SHT31;54672;46.096;14.470;2022-09-09T07:21:10;19.33;85.93
67868;SHT31;54672;46.096;14.470;2022-09-09T07:23:40;19.31;86.29
67868;SHT31;54672;46.096;14.470;2022-09-09T07:26:14;19.35;86.31
67868;SHT31;54672;46.096;14.470;2022-09-09T07:28:40;19.32;85.18
67868;SHT31;54672;46.096;14.470;2022-09-09T07:31:07;19.36;84.78
67868;SHT31;54672;46.096;14.470;2022-09-09T07:33:34;19.38;85.25
67868;SHT31;54672;46.096;14.470;2022-09-09T07:36:17;19.35;84.05
67868;SHT31;54672;46.096;14.470;2022-09-09T07:38:48;19.35;84.27
67868;SHT31;54672;46.096;14.470;2022-09-09T07:41:37;19.29;84.08
67868;SHT31;54672;46.096;14.470;2022-09-09T07:44:07;19.28;83.61
67868;SHT31;54672;46.096;14.470;2022-09-09T07:46:34;19.41;84.10
67868;SHT31;54672;46.096;14.470;2022-09-09T07:49:00;19.42;83.28
67868;SHT31;54672;46.096;14.470;2022-09-09T07:51:28;19.66;82.70
67868;SHT31;54672;46.096;14.470;2022-09-09T07:54:03;20.06;80.79
67868;SHT31;54672;46.096;14.470;2022-09-09T07:56:30;20.11;80.75
67868;SHT31;54672;46.096;14.470;2022-09-09T07:58:57;19.97;80.86
67868;SHT31;54672;46.096;14.470;2022-09-09T08:01:29;20.06;81.26
67868;SHT31;54672;46.096;14.470;2022-09-09T08:03:58;19.96;81.88
67868;SHT31;54672;46.096;14.470;2022-09-09T08:06:27;19.90;82.18
67868;SHT31;54672;46.096;14.470;2022-09-09T08:08:54;19.89;82.11
67868;SHT31;54672;46.096;14.470;2022-09-09T08:11:21;19.90;81.99
67868;SHT31;54672;46.096;14.470;2022-09-09T08:13:49;19.98;82.21
67868;SHT31;54672;46.096;14.470;2022-09-09T08:16:18;20.00;82.09
67868;SHT31;54672;46.096;14.470;2022-09-09T08:18:43;19.98;81.23
67868;SHT31;54672;46.096;14.470;2022-09-09T08:21:15;19.93;81.47
67868;SHT31;54672;46.096;14.470;2022-09-09T08:23:42;19.96;80.65
67868;SHT31;54672;46.096;14.470;2022-09-09T08:26:13;20.09;80.68
67868;SHT31;54672;46.096;14.470;2022-09-09T08:28:40;20.16;80.43
67868;SHT31;54672;46.096;14.470;2022-09-09T08:31:07;20.16;79.64
67868;SHT31;54672;46.096;14.470;2022-09-09T08:33:33;20.27;80.18
67868;SHT31;54672;46.096;14.470;2022-09-09T08:35:58;20.32;78.12
67868;SHT31;54672;46.096;14.470;2022-09-09T08:38:24;20.37;77.12
67868;SHT31;54672;46.096;14.470;2022-09-09T08:40:53;20.38;76.87
67868;SHT31;54672;46.096;14.470;2022-09-09T08:43:27;20.42;76.95
67868;SHT31;54672;46.096;14.470;2022-09-09T08:46:11;20.31;76.44
67868;SHT31;54672;46.096;14.470;2022-09-09T08:51:17;20.18;77.41
67868;SHT31;54672;46.096;14.470;2022-09-09T08:53:49;20.21;77.20
67868;SHT31;54672;46.096;14.470;2022-09-09T08:56:18;20.14;78.02
67868;SHT31;54672;46.096;14.470;2022-09-09T08:58:49;20.14;77.32
67868;SHT31;54672;46.096;14.470;2022-09-09T09:01:28;20.07;78.35
67868;SHT31;54672;46.096;14.470;2022-09-09T09:04:32;20.07;78.65
67868;SHT31;54672;46.096;14.470;2022-09-09T09:12:48;20.00;78.78
67868;SHT31;54672;46.096;14.470;2022-09-09T09:15:21;19.98;79.33
67868;SHT31;54672;46.096;14.470;2022-09-09T09:17:48;20.10;78.49
67868;SHT31;54672;46.096;14.470;2022-09-09T09:20:16;20.11;78.63
67868;SHT31;54672;46.096;14.470;2022-09-09T09:22:51;20.30;78.37
67868;SHT31;54672;46.096;14.470;2022-09-09T09:25:19;20.35;77.44
67868;SHT31;54672;46.096;14.470;2022-09-09T09:28:00;20.27;77.81
67868;SHT31;54672;46.096;14.470;2022-09-09T09:30:31;20.16;78.79
67868;SHT31;54672;46.096;14.470;2022-09-09T09:33:12;20.24;78.42
67868;SHT31;54672;46.096;14.470;2022-09-09T09:35:40;20.21;78.50
67868;SHT31;54672;46.096;14.470;2022-09-09T09:38:32;20.27;77.87
67868;SHT31;54672;46.096;14.470;2022-09-09T09:40:58;20.30;77.92
67868;SHT31;54672;46.096;14.470;2022-09-09T09:43:29;20.25;78.66
67868;SHT31;54672;46.096;14.470;2022-09-09T09:45:56;19.87;79.21
67868;SHT31;54672;46.096;14.470;2022-09-09T09:48:23;19.94;79.04
67868;SHT31;54672;46.096;14.470;2022-09-09T09:53:26;19.93;79.54
67868;SHT31;54672;46.096;14.470;2022-09-09T09:56:13;20.14;78.37
67868;SHT31;54672;46.096;14.470;2022-09-09T09:58:50;20.20;77.74
67868;SHT31;54672;46.096;14.470;2022-09-09T10:01:29;20.27;77.96
67868;SHT31;54672;46.096;14.470;2022-09-09T10:04:02;20.24;77.71
67868;SHT31;54672;46.096;14.470;2022-09-09T10:06:37;20.24;77.86
67868;SHT31;54672;46.096;14.470;2022-09-09T10:09:17;20.06;77.71
67868;SHT31;54672;46.096;14.470;2022-09-09T10:12:07;19.98;78.75
67868;SHT31;54672;46.096;14.470;2022-09-09T10:19:44;20.06;78.93
67868;SHT31;54672;46.096;14.470;2022-09-09T10:22:32;19.77;79.60
67868;SHT31;54672;46.096;14.470;2022-09-09T10:27:44;19.77;79.38
67868;SHT31;54672;46.096;14.470;2022-09-09T10:30:21;19.70;79.36
67868;SHT31;54672;46.096;14.470;2022-09-09T10:38:42;19.36;81.55
67868;SHT31;54672;46.096;14.470;2022-09-09T10:41:39;19.16;82.89
67868;SHT31;54672;46.096;14.470;2022-09-09T10:44:17;19.04;83.46
67868;SHT31;54672;46.096;14.470;2022-09-09T10:52:32;18.29;86.92
67868;SHT31;54672;46.096;14.470;2022-09-09T10:55:13;18.13;87.98
67868;SHT31;54672;46.096;14.470;2022-09-09T10:57:50;18.01;89.27
67868;SHT31;54672;46.096;14.470;2022-09-09T11:00:22;17.92;89.86
67868;SHT31;54672;46.096;14.470;2022-09-09T11:02:56;17.84;90.57
67868;SHT31;54672;46.096;14.470;2022-09-09T11:05:28;17.82;90.35
67868;SHT31;54672;46.096;14.470;2022-09-09T11:07:59;17.88;90.83
67868;SHT31;54672;46.096;14.470;2022-09-09T11:10:38;17.82;92.26
67868;SHT31;54672;46.096;14.470;2022-09-09T11:13:10;17.85;92.94
67868;SHT31;54672;46.096;14.470;2022-09-09T11:15:42;17.81;93.34
67868;SHT31;54672;46.096;14.470;2022-09-09T11:18:18;17.79;93.95
67868;SHT31;54672;46.096;14.470;2022-09-09T11:20:46;17.78;94.47
67868;SHT31;54672;46.096;14.470;2022-09-09T11:23:20;17.81;94.61
67868;SHT31;54672;46.096;14.470;2022-09-09T11:25:59;17.82;95.08
67868;SHT31;54672;46.096;14.470;2022-09-09T11:29:05;17.85;94.70
67868;SHT31;54672;46.096;14.470;2022-09-09T11:39:33;17.86;95.53
67868;SHT31;54672;46.096;14.470;2022-09-09T11:42:28;17.93;95.96
67868;SHT31;54672;46.096;14.470;2022-09-09T11:44:53;17.93;95.64
67868;SHT31;54672;46.096;14.470;2022-09-09T11:47:28;17.95;94.22
67868;SHT31;54672;46.096;14.470;2022-09-09T11:52:42;17.71;94.97
67868;SHT31;54672;46.096;14.470;2022-09-09T11:55:34;17.55;95.32
67868;SHT31;54672;46.096;14.470;2022-09-09T12:03:05;17.60;95.67
67868;SHT31;54672;46.096;14.470;2022-09-09T12:05:40;17.71;95.42
67868;SHT31;54672;46.096;14.470;2022-09-09T12:08:09;17.70;95.00
67868;SHT31;54672;46.096;14.470;2022-09-09T12:10:39;17.96;95.03
67868;SHT31;54672;46.096;14.470;2022-09-09T12:13:19;17.82;93.82
67868;SHT31;54672;46.096;14.470;2022-09-09T12:15:50;18.05;93.38
67868;SHT31;54672;46.096;14.470;2022-09-09T12:18:36;18.26;93.60
67868;SHT31;54672;46.096;14.470;2022-09-09T12:24:13;17.92;93.92
67868;SHT31;54672;46.096;14.470;2022-09-09T12:26:47;17.72;94.64
67868;SHT31;54672;46.096;14.470;2022-09-09T12:36:43;17.68;94.62
67868;SHT31;54672;46.096;14.470;2022-09-09T12:39:18;17.61;96.14
67868;SHT31;54672;46.096;14.470;2022-09-09T12:41:52;17.60;95.25
67868;SHT31;54672;46.096;14.470;2022-09-09T12:44:23;17.79;95.22
67868;SHT31;54672;46.096;14.470;2022-09-09T12:46:49;17.95;94.07
67868;SHT31;54672;46.096;14.470;2022-09-09T12:49:34;18.13;92.86
67868;SHT31;54672;46.096;14.470;2022-09-09T12:52:03;18.21;92.03
67868;SHT31;54672;46.096;14.470;2022-09-09T12:54:31;18.29;92.26
67868;SHT31;54672;46.096;14.470;2022-09-09T12:56:57;18.50;91.91
67868;SHT31;54672;46.096;14.470;2022-09-09T12:59:34;18.43;92.13
67868;SHT31;54672;46.096;14.470;2022-09-09T13:02:00;18.54;93.30
67868;SHT31;54672;46.096;14.470;2022-09-09T13:04:26;18.36;91.78
67868;SHT31;54672;46.096;14.470;2022-09-09T13:06:51;18.15;92.37
67868;SHT31;54672;46.096;14.470;2022-09-09T13:09:20;18.37;92.81
67868;SHT31;54672;46.096;14.470;2022-09-09T13:11:53;18.28;91.26
67868;SHT31;54672;46.096;14.470;2022-09-09T13:14:33;18.43;90.58
67868;SHT31;54672;46.096;14.470;2022-09-09T13:17:02;18.30;90.71
67868;SHT31;54672;46.096;14.470;2022-09-09T13:19:37;18.36;91.89
67868;SHT31;54672;46.096;14.470;2022-09-09T13:22:30;18.39;91.99
67868;SHT31;54672;46.096;14.470;2022-09-09T13:25:05;18.78;91.79
67868;SHT31;54672;46.096;14.470;2022-09-09T13:27:34;19.08;89.79
67868;SHT31;54672;46.096;14.470;2022-09-09T13:30:00;19.39;92.25
67868;SHT31;54672;46.096;14.470;2022-09-09T13:32:26;19.87;88.11
67868;SHT31;54672;46.096;14.470;2022-09-09T13:34:57;20.24;88.36
67868;SHT31;54672;46.096;14.470;2022-09-09T13:37:28;19.76;84.85
67868;SHT31;54672;46.096;14.470;2022-09-09T13:39:56;19.90;88.56
67868;SHT31;54672;46.096;14.470;2022-09-09T13:42:29;20.07;83.56
67868;SHT31;54672;46.096;14.470;2022-09-09T13:44:56;19.53;87.90
67868;SHT31;54672;46.096;14.470;2022-09-09T13:47:30;19.42;85.37
67868;SHT31;54672;46.096;14.470;2022-09-09T13:49:56;19.02;86.66
67868;SHT31;54672;46.096;14.470;2022-09-09T13:52:22;18.83;89.91
67868;SHT31;54672;46.096;14.470;2022-09-09T13:54:49;18.73;88.58
67868;SHT31;54672;46.096;14.470;2022-09-09T13:57:24;18.83;90.14
67868;SHT31;54672;46.096;14.470;2022-09-09T13:59:52;18.80;91.21
67868;SHT31;54672;46.096;14.470;2022-09-09T14:02:18;18.83;90.25
67868;SHT31;54672;46.096;14.470;2022-09-09T14:04:44;18.75;90.20
67868;SHT31;54672;46.096;14.470;2022-09-09T14:07:15;18.81;91.27
67868;SHT31;54672;46.096;14.470;2022-09-09T14:09:41;18.97;89.90
67868;SHT31;54672;46.096;14.470;2022-09-09T14:12:11;18.93;89.05
67868;SHT31;54672;46.096;14.470;2022-09-09T14:14:37;18.88;90.11
67868;SHT31;54672;46.096;14.470;2022-09-09T14:17:03;18.81;89.66
67868;SHT31;54672;46.096;14.470;2022-09-09T14:19:29;18.75;90.58
67868;SHT31;54672;46.096;14.470;2022-09-09T14:21:56;18.73;89.72
67868;SHT31;54672;46.096;14.470;2022-09-09T14:24:21;18.77;89.95
67868;SHT31;54672;46.096;14.470;2022-09-09T14:26:47;18.84;88.33
67868;SHT31;54672;46.096;14.470;2022-09-09T14:29:13;18.85;89.50
67868;SHT31;54672;46.096;14.470;2022-09-09T14:31:38;18.93;89.92
67868;SHT31;54672;46.096;14.470;2022-09-09T14:34:03;18.83;90.34
67868;SHT31;54672;46.096;14.470;2022-09-09T14:36:29;18.70;88.96
67868;SHT31;54672;46.096;14.470;2022-09-09T14:38:55;18.64;90.18
67868;SHT31;54672;46.096;14.470;2022-09-09T14:41:20;18.63;89.49
67868;SHT31;54672;46.096;14.470;2022-09-09T14:43:47;18.63;90.22
67868;SHT31;54672;46.096;14.470;2022-09-09T14:46:15;18.71;89.56
67868;SHT31;54672;46.096;14.470;2022-09-09T14:48:41;18.73;89.39
67868;SHT31;54672;46.096;14.470;2022-09-09T14:51:15;18.75;88.13
67868;SHT31;54672;46.096;14.470;2022-09-09T14:53:42;18.85;87.10
67868;SHT31;54672;46.096;14.470;2022-09-09T14:56:14;18.85;89.93
67868;SHT31;54672;46.096;14.470;2022-09-09T14:58:40;18.94;90.79
67868;SHT31;54672;46.096;14.470;2022-09-09T15:01:08;19.00;91.41
67868;SHT31;54672;46.096;14.470;2022-09-09T15:03:38;18.83;91.37
67868;SHT31;54672;46.096;14.470;2022-09-09T15:08:34;18.87;92.25
67868;SHT31;54672;46.096;14.470;2022-09-09T15:11:01;18.90;92.07
67868;SHT31;54672;46.096;14.470;2022-09-09T15:13:27;18.97;92.22
67868;SHT31;54672;46.096;14.470;2022-09-09T15:15:52;18.88;91.80
67868;SHT31;54672;46.096;14.470;2022-09-09T15:18:19;18.91;91.65
67868;SHT31;54672;46.096;14.470;2022-09-09T15:20:45;18.85;90.82
67868;SHT31;54672;46.096;14.470;2022-09-09T15:23:11;18.88;91.56
67868;SHT31;54672;46.096;14.470;2022-09-09T15:25:36;18.83;91.78
67868;SHT31;54672;46.096;14.470;2022-09-09T15:28:02;18.70;92.17
67868;SHT31;54672;46.096;14.470;2022-09-09T15:30:27;18.71;91.99
67868;SHT31;54672;46.096;14.470;2022-09-09T15:32:53;18.71;91.70
67868;SHT31;54672;46.096;14.470;2022-09-09T15:35:18;18.80;91.52
67868;SHT31;54672;46.096;14.470;2022-09-09T15:37:44;18.87;91.59
67868;SHT31;54672;46.096;14.470;2022-09-09T15:40:10;18.91;91.92
67868;SHT31;54672;46.096;14.470;2022-09-09T15:42:35;18.98;91.49
67868;SHT31;54672;46.096;14.470;2022-09-09T15:45:01;18.87;90.37
67868;SHT31;54672;46.096;14.470;2022-09-09T15:47:26;18.78;90.80
67868;SHT31;54672;46.096;14.470;2022-09-09T15:49:52;18.74;90.03
67868;SHT31;54672;46.096;14.470;2022-09-09T15:52:18;18.68;90.78
67868;SHT31;54672;46.096;14.470;2022-09-09T15:54:43;18.57;91.42
67868;SHT31;54672;46.096;14.470;2022-09-09T15:57:12;18.47;92.42
67868;SHT31;54672;46.096;14.470;2022-09-09T15:59:37;18.49;92.13
67868;SHT31;54672;46.096;14.470;2022-09-09T16:02:03;18.56;91.55
67868;SHT31;54672;46.096;14.470;2022-09-09T16:04:30;18.64;91.69
67868;SHT31;54672;46.096;14.470;2022-09-09T16:06:59;18.65;91.60
67868;SHT31;54672;46.096;14.470;2022-09-09T16:09:26;18.64;91.92
67868;SHT31;54672;46.096;14.470;2022-09-09T16:11:51;18.56;92.37
67868;SHT31;54672;46.096;14.470;2022-09-09T16:14:18;18.50;92.84
67868;SHT31;54672;46.096;14.470;2022-09-09T16:16:44;18.54;93.08
67868;SHT31;54672;46.096;14.470;2022-09-09T16:19:11;18.56;92.81
67868;SHT31;54672;46.096;14.470;2022-09-09T16:21:43;18.49;93.06
67868;SHT31;54672;46.096;14.470;2022-09-09T16:24:11;18.50;92.47
67868;SHT31;54672;46.096;14.470;2022-09-09T16:26:39;18.44;92.53
67868;SHT31;54672;46.096;14.470;2022-09-09T16:29:05;18.36;92.93
67868;SHT31;54672;46.096;14.470;2022-09-09T16:31:30;18.34;92.78
67868;SHT31;54672;46.096;14.470;2022-09-09T16:33:57;18.36;92.59
67868;SHT31;54672;46.096;14.470;2022-09-09T16:36:27;18.30;92.91
67868;SHT31;54672;46.096;14.470;2022-09-09T16:38:54;18.26;93.91
67868;SHT31;54672;46.096;14.470;2022-09-09T16:41:20;18.22;94.29
67868;SHT31;54672;46.096;14.470;2022-09-09T16:43:46;18.08;94.77
67868;SHT31;54672;46.096;14.470;2022-09-09T16:46:16;18.03;95.22
67868;SHT31;54672;46.096;14.470;2022-09-09T16:48:44;17.88;95.97
67868;SHT31;54672;46.096;14.470;2022-09-09T16:53:41;17.54;96.44
67868;SHT31;54672;46.096;14.470;2022-09-09T16:56:14;17.30;96.94
67868;SHT31;54672;46.096;14.470;2022-09-09T16:58:41;17.28;97.43
67868;SHT31;54672;46.096;14.470;2022-09-09T17:01:08;17.26;97.45
67868;SHT31;54672;46.096;14.470;2022-09-09T17:03:35;17.20;97.62
67868;SHT31;54672;46.096;14.470;2022-09-09T17:06:02;17.22;97.54
67868;SHT31;54672;46.096;14.470;2022-09-09T17:08:29;17.23;97.60
67868;SHT31;54672;46.096;14.470;2022-09-09T17:10:55;17.23;97.31
67868;SHT31;54672;46.096;14.470;2022-09-09T17:13:20;17.19;97.42
67868;SHT31;54672;46.096;14.470;2022-09-09T17:15:46;17.17;97.15
67868;SHT31;54672;46.096;14.470;2022-09-09T17:18:12;17.10;97.19
67868;SHT31;54672;46.096;14.470;2022-09-09T17:20:41;17.07;97.39
67868;SHT31;54672;46.096;14.470;2022-09-09T17:23:07;17.02;97.95
67868;SHT31;54672;46.096;14.470;2022-09-09T17:25:33;17.03;97.80
67868;SHT31;54672;46.096;14.470;2022-09-09T17:27:59;16.97;97.99
67868;SHT31;54672;46.096;14.470;2022-09-09T17:30:25;16.99;98.11
67868;SHT31;54672;46.096;14.470;2022-09-09T17:32:51;17.00;98.16
67868;SHT31;54672;46.096;14.470;2022-09-09T17:35:16;16.97;98.00
67868;SHT31;54672;46.096;14.470;2022-09-09T17:37:42;16.93;98.24